sensor_id;sensor_type;location;lat;lon;timestamp;P1;durP1;ratioP1;P2;durP2;ratioP2
34278;SDS011;20538;51.528;9.942;2024-03-08T00:00:34;23.65;;;10.88;;
34278;SDS011;20538;51.528;9.942;2024-03-08T00:36:40;35.30;;;11.50;;
34278;SDS011;20538;51.528;9.942;2024-03-08T00:39:06;25.00;;;10.07;;
34278;SDS011;20538;51.528;9.942;2024-03-08T00:41:32;31.08;;;11.55;;
34278;SDS011;20538;51.528;9.942;2024-03-08T00:43:58;38.45;;;12.82;;
34278;SDS011;20538;51.528;9.942;2024-03-08T00:46:23;26.40;;;11.57;;
34278;SDS011;20538;51.528;9.942;2024-03-08T00:48:49;32.58;;;11.93;;
34278;SDS011;20538;51.528;9.942;2024-03-08T00:51:15;27.63;;;12.15;;
34278;SDS011;20538;51.528;9.942;2024-03-08T00:53:41;29.48;;;13.68;;
34278;SDS011;20538;51.528;9.942;2024-03-08T00:56:08;25.88;;;11.35;;
34278;SDS011;20538;51.528;9.942;2024-03-08T00:58:36;29.45;;;12.85;;
34278;SDS011;20538;51.528;9.942;2024-03-08T01:01:02;33.38;;;13.57;;
34278;SDS011;20538;51.528;9.942;2024-03-08T01:03:29;29.90;;;12.63;;
34278;SDS011;20538;51.528;9.942;2024-03-08T01:05:59;26.85;;;12.98;;
34278;SDS011;20538;51.528;9.942;2024-03-08T01:08:27;29.90;;;13.05;;
34278;SDS011;20538;51.528;9.942;2024-03-08T01:10:53;31.17;;;12.30;;
34278;SDS011;20538;51.528;9.942;2024-03-08T01:13:19;32.90;;;12.75;;
34278;SDS011;20538;51.528;9.942;2024-03-08T01:15:44;32.17;;;12.52;;
34278;SDS011;20538;51.528;9.942;2024-03-08T01:18:11;33.17;;;14.60;;
34278;SDS011;20538;51.528;9.942;2024-03-08T01:20:36;26.83;;;13.25;;
34278;SDS011;20538;51.528;9.942;2024-03-08T01:23:02;30.67;;;12.55;;
34278;SDS011;20538;51.528;9.942;2024-03-08T01:25:32;26.27;;;12.55;;
34278;SDS011;20538;51.528;9.942;2024-03-08T01:27:58;33.30;;;14.55;;
34278;SDS011;20538;51.528;9.942;2024-03-08T01:30:23;40.63;;;13.55;;
34278;SDS011;20538;51.528;9.942;2024-03-08T01:32:49;29.85;;;13.05;;
34278;SDS011;20538;51.528;9.942;2024-03-08T01:35:15;27.42;;;12.93;;
34278;SDS011;20538;51.528;9.942;2024-03-08T01:37:40;26.90;;;13.30;;
34278;SDS011;20538;51.528;9.942;2024-03-08T01:40:06;28.40;;;11.82;;
34278;SDS011;20538;51.528;9.942;2024-03-08T01:42:33;31.27;;;11.73;;
34278;SDS011;20538;51.528;9.942;2024-03-08T01:45:02;23.98;;;12.57;;
34278;SDS011;20538;51.528;9.942;2024-03-08T01:47:30;31.95;;;12.32;;
34278;SDS011;20538;51.528;9.942;2024-03-08T01:49:57;35.17;;;13.38;;
34278;SDS011;20538;51.528;9.942;2024-03-08T01:52:26;29.38;;;12.35;;
34278;SDS011;20538;51.528;9.942;2024-03-08T01:54:53;30.48;;;11.85;;
34278;SDS011;20538;51.528;9.942;2024-03-08T01:57:20;34.70;;;14.00;;
34278;SDS011;20538;51.528;9.942;2024-03-08T01:59:46;39.40;;;14.90;;
34278;SDS011;20538;51.528;9.942;2024-03-08T02:02:12;35.80;;;14.20;;
34278;SDS011;20538;51.528;9.942;2024-03-08T02:04:41;29.25;;;12.63;;
34278;SDS011;20538;51.528;9.942;2024-03-08T02:07:06;35.67;;;13.73;;
34278;SDS011;20538;51.528;9.942;2024-03-08T02:09:32;38.60;;;14.35;;
34278;SDS011;20538;51.528;9.942;2024-03-08T02:11:57;33.75;;;13.75;;
34278;SDS011;20538;51.528;9.942;2024-03-08T02:14:23;30.88;;;13.05;;
34278;SDS011;20538;51.528;9.942;2024-03-08T02:16:49;38.67;;;14.55;;
34278;SDS011;20538;51.528;9.942;2024-03-08T02:19:16;30.13;;;12.73;;
34278;SDS011;20538;51.528;9.942;2024-03-08T02:21:42;28.48;;;11.93;;
34278;SDS011;20538;51.528;9.942;2024-03-08T02:24:08;38.05;;;14.05;;
34278;SDS011;20538;51.528;9.942;2024-03-08T02:26:35;29.63;;;14.00;;
34278;SDS011;20538;51.528;9.942;2024-03-08T02:29:01;42.08;;;15.05;;
34278;SDS011;20538;51.528;9.942;2024-03-08T02:31:27;30.05;;;12.40;;
34278;SDS011;20538;51.528;9.942;2024-03-08T02:33:52;30.23;;;12.75;;
34278;SDS011;20538;51.528;9.942;2024-03-08T02:36:18;30.63;;;13.27;;
34278;SDS011;20538;51.528;9.942;2024-03-08T02:38:43;31.88;;;13.77;;
34278;SDS011;20538;51.528;9.942;2024-03-08T02:41:09;34.15;;;13.52;;
34278;SDS011;20538;51.528;9.942;2024-03-08T02:43:35;36.13;;;13.38;;
34278;SDS011;20538;51.528;9.942;2024-03-08T02:46:01;36.45;;;13.27;;
34278;SDS011;20538;51.528;9.942;2024-03-08T02:48:27;37.38;;;14.57;;
34278;SDS011;20538;51.528;9.942;2024-03-08T02:50:52;27.17;;;12.75;;
34278;SDS011;20538;51.528;9.942;2024-03-08T02:53:18;31.27;;;13.63;;
34278;SDS011;20538;51.528;9.942;2024-03-08T02:55:44;34.25;;;13.10;;
34278;SDS011;20538;51.528;9.942;2024-03-08T02:58:10;30.95;;;12.70;;
34278;SDS011;20538;51.528;9.942;2024-03-08T03:00:38;29.50;;;13.18;;
34278;SDS011;20538;51.528;9.942;2024-03-08T03:03:05;27.35;;;12.15;;
34278;SDS011;20538;51.528;9.942;2024-03-08T03:05:31;40.58;;;15.32;;
34278;SDS011;20538;51.528;9.942;2024-03-08T03:07:57;28.42;;;12.40;;
34278;SDS011;20538;51.528;9.942;2024-03-08T03:10:23;30.30;;;12.15;;
34278;SDS011;20538;51.528;9.942;2024-03-08T03:12:49;35.13;;;12.38;;
34278;SDS011;20538;51.528;9.942;2024-03-08T03:15:15;33.78;;;13.77;;
34278;SDS011;20538;51.528;9.942;2024-03-08T03:17:50;33.47;;;12.70;;
34278;SDS011;20538;51.528;9.942;2024-03-08T03:20:16;42.38;;;14.43;;
34278;SDS011;20538;51.528;9.942;2024-03-08T03:22:51;35.47;;;13.52;;
34278;SDS011;20538;51.528;9.942;2024-03-08T03:25:20;30.42;;;12.23;;
34278;SDS011;20538;51.528;9.942;2024-03-08T03:27:51;29.42;;;11.57;;
34278;SDS011;20538;51.528;9.942;2024-03-08T03:30:17;39.03;;;14.27;;
34278;SDS011;20538;51.528;9.942;2024-03-08T03:32:46;34.00;;;13.07;;
34278;SDS011;20538;51.528;9.942;2024-03-08T03:35:15;34.58;;;12.55;;
34278;SDS011;20538;51.528;9.942;2024-03-08T03:37:45;34.63;;;14.15;;
34278;SDS011;20538;51.528;9.942;2024-03-08T03:40:26;30.52;;;11.95;;
34278;SDS011;20538;51.528;9.942;2024-03-08T03:42:55;25.38;;;12.27;;
34278;SDS011;20538;51.528;9.942;2024-03-08T03:45:21;35.00;;;12.88;;
34278;SDS011;20538;51.528;9.942;2024-03-08T03:47:46;38.58;;;13.13;;
34278;SDS011;20538;51.528;9.942;2024-03-08T03:50:12;27.65;;;11.80;;
34278;SDS011;20538;51.528;9.942;2024-03-08T03:52:38;28.08;;;11.80;;
34278;SDS011;20538;51.528;9.942;2024-03-08T03:55:04;34.05;;;12.73;;
34278;SDS011;20538;51.528;9.942;2024-03-08T03:57:30;39.22;;;13.52;;
34278;SDS011;20538;51.528;9.942;2024-03-08T03:59:56;34.15;;;14.15;;
34278;SDS011;20538;51.528;9.942;2024-03-08T04:02:23;32.28;;;13.13;;
34278;SDS011;20538;51.528;9.942;2024-03-08T04:04:51;35.08;;;13.52;;
34278;SDS011;20538;51.528;9.942;2024-03-08T04:07:20;28.73;;;13.00;;
34278;SDS011;20538;51.528;9.942;2024-03-08T04:09:46;37.60;;;13.48;;
34278;SDS011;20538;51.528;9.942;2024-03-08T04:12:12;32.40;;;12.65;;
34278;SDS011;20538;51.528;9.942;2024-03-08T04:14:38;27.75;;;12.30;;
34278;SDS011;20538;51.528;9.942;2024-03-08T04:17:06;38.45;;;13.98;;
34278;SDS011;20538;51.528;9.942;2024-03-08T04:19:33;27.13;;;13.73;;
34278;SDS011;20538;51.528;9.942;2024-03-08T04:21:59;34.95;;;12.68;;
34278;SDS011;20538;51.528;9.942;2024-03-08T04:24:26;41.20;;;15.85;;
34278;SDS011;20538;51.528;9.942;2024-03-08T04:26:51;34.72;;;13.90;;
34278;SDS011;20538;51.528;9.942;2024-03-08T04:29:18;35.38;;;14.43;;
34278;SDS011;20538;51.528;9.942;2024-03-08T04:31:43;38.35;;;12.90;;
34278;SDS011;20538;51.528;9.942;2024-03-08T04:34:09;28.48;;;11.20;;
34278;SDS011;20538;51.528;9.942;2024-03-08T04:36:35;30.95;;;12.70;;
34278;SDS011;20538;51.528;9.942;2024-03-08T04:39:01;33.80;;;14.85;;
34278;SDS011;20538;51.528;9.942;2024-03-08T04:41:27;43.60;;;13.18;;
34278;SDS011;20538;51.528;9.942;2024-03-08T04:43:55;43.53;;;14.98;;
34278;SDS011;20538;51.528;9.942;2024-03-08T04:46:22;38.83;;;14.82;;
34278;SDS011;20538;51.528;9.942;2024-03-08T04:48:48;31.83;;;14.40;;
34278;SDS011;20538;51.528;9.942;2024-03-08T04:51:14;34.45;;;14.18;;
34278;SDS011;20538;51.528;9.942;2024-03-08T04:53:40;36.45;;;11.77;;
34278;SDS011;20538;51.528;9.942;2024-03-08T04:56:06;33.53;;;14.02;;
34278;SDS011;20538;51.528;9.942;2024-03-08T04:58:33;43.40;;;15.50;;
34278;SDS011;20538;51.528;9.942;2024-03-08T05:01:01;37.65;;;15.88;;
34278;SDS011;20538;51.528;9.942;2024-03-08T05:03:27;34.53;;;12.68;;
34278;SDS011;20538;51.528;9.942;2024-03-08T05:05:53;40.67;;;13.50;;
34278;SDS011;20538;51.528;9.942;2024-03-08T05:08:19;38.67;;;14.93;;
34278;SDS011;20538;51.528;9.942;2024-03-08T05:10:44;33.70;;;14.70;;
34278;SDS011;20538;51.528;9.942;2024-03-08T05:13:11;34.20;;;13.43;;
34278;SDS011;20538;51.528;9.942;2024-03-08T05:15:38;41.70;;;14.73;;
34278;SDS011;20538;51.528;9.942;2024-03-08T05:18:04;38.63;;;14.05;;
34278;SDS011;20538;51.528;9.942;2024-03-08T05:20:30;29.80;;;13.10;;
34278;SDS011;20538;51.528;9.942;2024-03-08T05:22:56;34.88;;;14.50;;
34278;SDS011;20538;51.528;9.942;2024-03-08T05:25:23;39.05;;;15.13;;
34278;SDS011;20538;51.528;9.942;2024-03-08T05:27:49;28.17;;;11.52;;
34278;SDS011;20538;51.528;9.942;2024-03-08T05:30:15;45.05;;;14.35;;
34278;SDS011;20538;51.528;9.942;2024-03-08T05:32:41;47.47;;;14.50;;
34278;SDS011;20538;51.528;9.942;2024-03-08T05:35:10;36.35;;;13.77;;
34278;SDS011;20538;51.528;9.942;2024-03-08T05:37:37;33.25;;;13.73;;
34278;SDS011;20538;51.528;9.942;2024-03-08T05:40:04;34.67;;;13.27;;
34278;SDS011;20538;51.528;9.942;2024-03-08T05:42:34;31.58;;;14.98;;
34278;SDS011;20538;51.528;9.942;2024-03-08T05:45:05;47.28;;;13.45;;
34278;SDS011;20538;51.528;9.942;2024-03-08T05:47:31;36.67;;;14.52;;
34278;SDS011;20538;51.528;9.942;2024-03-08T05:50:00;49.72;;;15.07;;
34278;SDS011;20538;51.528;9.942;2024-03-08T05:52:26;42.10;;;15.25;;
34278;SDS011;20538;51.528;9.942;2024-03-08T05:54:52;33.03;;;13.75;;
34278;SDS011;20538;51.528;9.942;2024-03-08T05:57:17;32.95;;;14.20;;
34278;SDS011;20538;51.528;9.942;2024-03-08T05:59:43;38.83;;;14.95;;
34278;SDS011;20538;51.528;9.942;2024-03-08T06:02:09;37.55;;;16.38;;
34278;SDS011;20538;51.528;9.942;2024-03-08T06:04:35;45.40;;;15.77;;
34278;SDS011;20538;51.528;9.942;2024-03-08T06:07:00;44.17;;;14.95;;
34278;SDS011;20538;51.528;9.942;2024-03-08T06:09:28;48.17;;;17.05;;
34278;SDS011;20538;51.528;9.942;2024-03-08T06:11:54;40.45;;;16.10;;
34278;SDS011;20538;51.528;9.942;2024-03-08T06:14:20;43.10;;;16.75;;
34278;SDS011;20538;51.528;9.942;2024-03-08T06:16:46;45.72;;;16.77;;
34278;SDS011;20538;51.528;9.942;2024-03-08T06:19:12;37.42;;;16.52;;
34278;SDS011;20538;51.528;9.942;2024-03-08T06:21:38;33.25;;;14.90;;
34278;SDS011;20538;51.528;9.942;2024-03-08T06:24:04;45.92;;;17.15;;
34278;SDS011;20538;51.528;9.942;2024-03-08T06:26:30;40.45;;;16.38;;
34278;SDS011;20538;51.528;9.942;2024-03-08T06:28:56;31.70;;;13.75;;
34278;SDS011;20538;51.528;9.942;2024-03-08T06:31:22;43.15;;;16.00;;
34278;SDS011;20538;51.528;9.942;2024-03-08T06:33:48;33.60;;;15.02;;
34278;SDS011;20538;51.528;9.942;2024-03-08T06:36:17;36.97;;;14.00;;
34278;SDS011;20538;51.528;9.942;2024-03-08T06:38:49;41.03;;;15.90;;
34278;SDS011;20538;51.528;9.942;2024-03-08T06:41:16;35.78;;;14.63;;
34278;SDS011;20538;51.528;9.942;2024-03-08T06:43:45;45.60;;;17.20;;
34278;SDS011;20538;51.528;9.942;2024-03-08T06:46:11;38.03;;;14.10;;
34278;SDS011;20538;51.528;9.942;2024-03-08T06:48:41;31.13;;;14.45;;
34278;SDS011;20538;51.528;9.942;2024-03-08T06:51:06;41.28;;;16.63;;
34278;SDS011;20538;51.528;9.942;2024-03-08T06:53:32;41.28;;;15.00;;
34278;SDS011;20538;51.528;9.942;2024-03-08T06:56:00;42.53;;;16.67;;
34278;SDS011;20538;51.528;9.942;2024-03-08T06:58:28;42.80;;;14.45;;
34278;SDS011;20538;51.528;9.942;2024-03-08T07:00:53;38.90;;;15.30;;
34278;SDS011;20538;51.528;9.942;2024-03-08T07:03:23;34.75;;;14.55;;
34278;SDS011;20538;51.528;9.942;2024-03-08T07:05:49;41.95;;;16.00;;
34278;SDS011;20538;51.528;9.942;2024-03-08T07:08:15;36.55;;;14.35;;
34278;SDS011;20538;51.528;9.942;2024-03-08T07:10:41;38.63;;;16.25;;
34278;SDS011;20538;51.528;9.942;2024-03-08T07:13:07;47.80;;;16.73;;
34278;SDS011;20538;51.528;9.942;2024-03-08T07:15:33;49.90;;;17.50;;
34278;SDS011;20538;51.528;9.942;2024-03-08T07:18:00;38.53;;;15.98;;
34278;SDS011;20538;51.528;9.942;2024-03-08T07:20:26;39.15;;;15.85;;
34278;SDS011;20538;51.528;9.942;2024-03-08T07:22:53;40.05;;;16.08;;
34278;SDS011;20538;51.528;9.942;2024-03-08T07:25:19;46.17;;;16.63;;
34278;SDS011;20538;51.528;9.942;2024-03-08T07:27:48;34.47;;;16.10;;
34278;SDS011;20538;51.528;9.942;2024-03-08T07:30:14;43.22;;;16.98;;
34278;SDS011;20538;51.528;9.942;2024-03-08T07:32:58;35.30;;;15.90;;
34278;SDS011;20538;51.528;9.942;2024-03-08T07:35:24;36.97;;;15.65;;
34278;SDS011;20538;51.528;9.942;2024-03-08T07:37:51;42.65;;;16.50;;
34278;SDS011;20538;51.528;9.942;2024-03-08T07:40:20;41.80;;;16.38;;
34278;SDS011;20538;51.528;9.942;2024-03-08T07:42:46;44.55;;;16.67;;
34278;SDS011;20538;51.528;9.942;2024-03-08T07:45:12;44.88;;;15.75;;
34278;SDS011;20538;51.528;9.942;2024-03-08T07:47:38;43.88;;;18.10;;
34278;SDS011;20538;51.528;9.942;2024-03-08T07:50:05;44.38;;;15.77;;
34278;SDS011;20538;51.528;9.942;2024-03-08T07:52:33;38.58;;;14.63;;
34278;SDS011;20538;51.528;9.942;2024-03-08T07:54:59;38.10;;;15.73;;
34278;SDS011;20538;51.528;9.942;2024-03-08T07:57:25;45.83;;;18.90;;
34278;SDS011;20538;51.528;9.942;2024-03-08T07:59:51;42.45;;;14.93;;
34278;SDS011;20538;51.528;9.942;2024-03-08T08:02:17;38.88;;;16.60;;
34278;SDS011;20538;51.528;9.942;2024-03-08T08:04:43;39.88;;;16.88;;
34278;SDS011;20538;51.528;9.942;2024-03-08T08:07:10;43.78;;;17.02;;
34278;SDS011;20538;51.528;9.942;2024-03-08T08:09:36;40.60;;;15.40;;
34278;SDS011;20538;51.528;9.942;2024-03-08T08:12:02;45.17;;;16.85;;
34278;SDS011;20538;51.528;9.942;2024-03-08T08:14:29;39.97;;;16.20;;
34278;SDS011;20538;51.528;9.942;2024-03-08T08:16:56;39.88;;;15.63;;
34278;SDS011;20538;51.528;9.942;2024-03-08T08:19:23;40.55;;;16.85;;
34278;SDS011;20538;51.528;9.942;2024-03-08T08:21:51;34.15;;;14.05;;
34278;SDS011;20538;51.528;9.942;2024-03-08T08:24:16;41.75;;;16.25;;
34278;SDS011;20538;51.528;9.942;2024-03-08T08:26:42;43.90;;;17.10;;
34278;SDS011;20538;51.528;9.942;2024-03-08T08:29:09;40.25;;;16.50;;
34278;SDS011;20538;51.528;9.942;2024-03-08T08:31:35;36.25;;;16.17;;
34278;SDS011;20538;51.528;9.942;2024-03-08T08:34:01;28.55;;;12.73;;
34278;SDS011;20538;51.528;9.942;2024-03-08T08:36:28;32.53;;;14.77;;
34278;SDS011;20538;51.528;9.942;2024-03-08T08:38:54;35.35;;;15.85;;
34278;SDS011;20538;51.528;9.942;2024-03-08T08:41:22;38.13;;;16.42;;
34278;SDS011;20538;51.528;9.942;2024-03-08T08:43:48;38.97;;;14.27;;
34278;SDS011;20538;51.528;9.942;2024-03-08T08:46:16;36.08;;;14.02;;
34278;SDS011;20538;51.528;9.942;2024-03-08T08:48:42;37.50;;;15.70;;
34278;SDS011;20538;51.528;9.942;2024-03-08T08:51:10;37.83;;;14.32;;
34278;SDS011;20538;51.528;9.942;2024-03-08T08:53:42;34.80;;;15.43;;
34278;SDS011;20538;51.528;9.942;2024-03-08T08:56:14;39.47;;;14.15;;
34278;SDS011;20538;51.528;9.942;2024-03-08T08:58:41;35.55;;;14.65;;
34278;SDS011;20538;51.528;9.942;2024-03-08T09:01:09;38.20;;;15.52;;
34278;SDS011;20538;51.528;9.942;2024-03-08T09:03:36;33.70;;;14.77;;
34278;SDS011;20538;51.528;9.942;2024-03-08T09:06:22;36.53;;;14.32;;
34278;SDS011;20538;51.528;9.942;2024-03-08T09:08:47;37.38;;;15.02;;
34278;SDS011;20538;51.528;9.942;2024-03-08T09:11:13;31.98;;;13.73;;
34278;SDS011;20538;51.528;9.942;2024-03-08T09:13:40;35.38;;;15.20;;
34278;SDS011;20538;51.528;9.942;2024-03-08T09:16:05;34.90;;;14.77;;
34278;SDS011;20538;51.528;9.942;2024-03-08T09:18:31;36.15;;;15.32;;
34278;SDS011;20538;51.528;9.942;2024-03-08T09:20:57;40.28;;;15.20;;
34278;SDS011;20538;51.528;9.942;2024-03-08T09:23:24;32.00;;;13.70;;
34278;SDS011;20538;51.528;9.942;2024-03-08T09:25:55;42.67;;;16.27;;
34278;SDS011;20538;51.528;9.942;2024-03-08T09:28:23;36.15;;;14.40;;
34278;SDS011;20538;51.528;9.942;2024-03-08T09:30:49;41.92;;;15.95;;
34278;SDS011;20538;51.528;9.942;2024-03-08T09:33:15;31.25;;;13.65;;
34278;SDS011;20538;51.528;9.942;2024-03-08T09:35:44;32.42;;;15.18;;
34278;SDS011;20538;51.528;9.942;2024-03-08T09:38:12;36.50;;;13.95;;
34278;SDS011;20538;51.528;9.942;2024-03-08T09:40:38;29.20;;;13.18;;
34278;SDS011;20538;51.528;9.942;2024-03-08T09:43:06;37.42;;;14.93;;
34278;SDS011;20538;51.528;9.942;2024-03-08T09:45:32;33.30;;;13.23;;
34278;SDS011;20538;51.528;9.942;2024-03-08T09:48:01;33.33;;;14.55;;
34278;SDS011;20538;51.528;9.942;2024-03-08T09:50:27;30.52;;;13.98;;
34278;SDS011;20538;51.528;9.942;2024-03-08T09:52:54;35.42;;;15.15;;
34278;SDS011;20538;51.528;9.942;2024-03-08T09:55:22;38.10;;;15.23;;
34278;SDS011;20538;51.528;9.942;2024-03-08T09:57:51;28.95;;;12.73;;
34278;SDS011;20538;51.528;9.942;2024-03-08T10:00:37;37.95;;;15.55;;
34278;SDS011;20538;51.528;9.942;2024-03-08T10:03:03;37.53;;;15.93;;
34278;SDS011;20538;51.528;9.942;2024-03-08T10:05:30;30.73;;;13.57;;
34278;SDS011;20538;51.528;9.942;2024-03-08T10:07:58;38.40;;;15.65;;
34278;SDS011;20538;51.528;9.942;2024-03-08T10:10:23;32.58;;;14.68;;
34278;SDS011;20538;51.528;9.942;2024-03-08T10:12:49;42.50;;;16.48;;
34278;SDS011;20538;51.528;9.942;2024-03-08T10:15:15;33.00;;;14.80;;
34278;SDS011;20538;51.528;9.942;2024-03-08T10:17:45;32.45;;;14.35;;
34278;SDS011;20538;51.528;9.942;2024-03-08T10:20:13;37.08;;;15.30;;
34278;SDS011;20538;51.528;9.942;2024-03-08T10:22:42;35.50;;;14.68;;
34278;SDS011;20538;51.528;9.942;2024-03-08T10:25:12;29.20;;;13.00;;
34278;SDS011;20538;51.528;9.942;2024-03-08T10:27:38;32.80;;;14.45;;
34278;SDS011;20538;51.528;9.942;2024-03-08T10:30:15;32.92;;;13.77;;
34278;SDS011;20538;51.528;9.942;2024-03-08T10:32:45;30.05;;;12.85;;
34278;SDS011;20538;51.528;9.942;2024-03-08T10:35:11;32.38;;;14.13;;
34278;SDS011;20538;51.528;9.942;2024-03-08T10:37:44;31.85;;;15.30;;
34278;SDS011;20538;51.528;9.942;2024-03-08T10:40:12;35.42;;;12.55;;
34278;SDS011;20538;51.528;9.942;2024-03-08T10:42:47;33.88;;;13.27;;
34278;SDS011;20538;51.528;9.942;2024-03-08T10:45:23;29.38;;;12.43;;
34278;SDS011;20538;51.528;9.942;2024-03-08T10:48:04;30.10;;;13.30;;
34278;SDS011;20538;51.528;9.942;2024-03-08T10:50:47;40.70;;;13.30;;
34278;SDS011;20538;51.528;9.942;2024-03-08T10:53:15;29.17;;;10.63;;
34278;SDS011;20538;51.528;9.942;2024-03-08T10:55:46;28.00;;;11.20;;
34278;SDS011;20538;51.528;9.942;2024-03-08T10:58:12;25.42;;;11.48;;
34278;SDS011;20538;51.528;9.942;2024-03-08T11:00:37;28.65;;;12.80;;
34278;SDS011;20538;51.528;9.942;2024-03-08T11:03:04;27.75;;;12.68;;
34278;SDS011;20538;51.528;9.942;2024-03-08T11:08:05;28.50;;;12.45;;
34278;SDS011;20538;51.528;9.942;2024-03-08T11:10:51;25.48;;;11.60;;
34278;SDS011;20538;51.528;9.942;2024-03-08T11:13:36;30.90;;;11.80;;
34278;SDS011;20538;51.528;9.942;2024-03-08T11:16:12;27.95;;;12.95;;
34278;SDS011;20538;51.528;9.942;2024-03-08T11:18:58;31.35;;;12.48;;
34278;SDS011;20538;51.528;9.942;2024-03-08T11:21:32;29.55;;;13.07;;
34278;SDS011;20538;51.528;9.942;2024-03-08T11:24:02;23.55;;;10.68;;
34278;SDS011;20538;51.528;9.942;2024-03-08T11:26:31;32.97;;;12.38;;
34278;SDS011;20538;51.528;9.942;2024-03-08T11:34:34;25.98;;;11.60;;
34278;SDS011;20538;51.528;9.942;2024-03-08T11:37:00;21.60;;;10.02;;
34278;SDS011;20538;51.528;9.942;2024-03-08T11:39:29;27.27;;;11.57;;
34278;SDS011;20538;51.528;9.942;2024-03-08T11:41:55;23.58;;;11.52;;
34278;SDS011;20538;51.528;9.942;2024-03-08T11:44:21;24.85;;;10.45;;
34278;SDS011;20538;51.528;9.942;2024-03-08T11:46:52;23.83;;;10.63;;
34278;SDS011;20538;51.528;9.942;2024-03-08T11:49:18;20.83;;;9.80;;
34278;SDS011;20538;51.528;9.942;2024-03-08T11:51:45;28.15;;;11.85;;
34278;SDS011;20538;51.528;9.942;2024-03-08T11:54:11;31.55;;;12.05;;
34278;SDS011;20538;51.528;9.942;2024-03-08T11:56:40;27.83;;;11.57;;
34278;SDS011;20538;51.528;9.942;2024-03-08T11:59:11;25.88;;;10.93;;
34278;SDS011;20538;51.528;9.942;2024-03-08T12:01:40;24.67;;;12.52;;
34278;SDS011;20538;51.528;9.942;2024-03-08T12:04:06;33.30;;;12.90;;
34278;SDS011;20538;51.528;9.942;2024-03-08T12:06:36;23.80;;;10.82;;
34278;SDS011;20538;51.528;9.942;2024-03-08T12:09:12;28.52;;;12.20;;
34278;SDS011;20538;51.528;9.942;2024-03-08T12:11:38;30.63;;;12.18;;
34278;SDS011;20538;51.528;9.942;2024-03-08T12:14:04;23.77;;;11.18;;
34278;SDS011;20538;51.528;9.942;2024-03-08T12:16:31;25.88;;;10.45;;
34278;SDS011;20538;51.528;9.942;2024-03-08T12:18:57;26.58;;;11.68;;
34278;SDS011;20538;51.528;9.942;2024-03-08T12:21:23;26.80;;;11.85;;
34278;SDS011;20538;51.528;9.942;2024-03-08T12:24:07;29.70;;;12.05;;
34278;SDS011;20538;51.528;9.942;2024-03-08T12:26:35;29.13;;;10.48;;
34278;SDS011;20538;51.528;9.942;2024-03-08T12:29:15;30.13;;;11.68;;
34278;SDS011;20538;51.528;9.942;2024-03-08T12:31:43;27.08;;;11.55;;
34278;SDS011;20538;51.528;9.942;2024-03-08T12:34:08;27.75;;;12.85;;
34278;SDS011;20538;51.528;9.942;2024-03-08T12:36:35;21.10;;;10.30;;
34278;SDS011;20538;51.528;9.942;2024-03-08T12:39:01;28.17;;;12.68;;
34278;SDS011;20538;51.528;9.942;2024-03-08T12:41:28;26.05;;;11.07;;
34278;SDS011;20538;51.528;9.942;2024-03-08T12:43:54;27.60;;;11.98;;
34278;SDS011;20538;51.528;9.942;2024-03-08T12:46:21;27.60;;;11.77;;
34278;SDS011;20538;51.528;9.942;2024-03-08T12:48:47;27.98;;;12.15;;
34278;SDS011;20538;51.528;9.942;2024-03-08T12:51:16;25.70;;;11.48;;
34278;SDS011;20538;51.528;9.942;2024-03-08T12:53:43;27.33;;;12.57;;
34278;SDS011;20538;51.528;9.942;2024-03-08T12:56:14;24.42;;;10.90;;
34278;SDS011;20538;51.528;9.942;2024-03-08T12:58:53;22.50;;;10.40;;
34278;SDS011;20538;51.528;9.942;2024-03-08T13:01:19;25.08;;;10.88;;
34278;SDS011;20538;51.528;9.942;2024-03-08T13:03:44;24.23;;;11.88;;
34278;SDS011;20538;51.528;9.942;2024-03-08T13:06:11;32.90;;;12.23;;
34278;SDS011;20538;51.528;9.942;2024-03-08T13:08:37;25.55;;;11.75;;
34278;SDS011;20538;51.528;9.942;2024-03-08T13:11:04;28.63;;;12.43;;
34278;SDS011;20538;51.528;9.942;2024-03-08T13:13:33;23.67;;;11.27;;
34278;SDS011;20538;51.528;9.942;2024-03-08T13:16:02;26.85;;;11.85;;
34278;SDS011;20538;51.528;9.942;2024-03-08T13:18:28;30.85;;;12.30;;
34278;SDS011;20538;51.528;9.942;2024-03-08T13:20:54;24.65;;;11.55;;
34278;SDS011;20538;51.528;9.942;2024-03-08T13:23:20;23.67;;;10.77;;
34278;SDS011;20538;51.528;9.942;2024-03-08T13:25:45;26.30;;;12.80;;
34278;SDS011;20538;51.528;9.942;2024-03-08T13:28:14;25.15;;;11.63;;
34278;SDS011;20538;51.528;9.942;2024-03-08T13:30:41;27.05;;;11.63;;
34278;SDS011;20538;51.528;9.942;2024-03-08T13:33:06;24.27;;;12.07;;
34278;SDS011;20538;51.528;9.942;2024-03-08T13:35:32;25.65;;;11.23;;
34278;SDS011;20538;51.528;9.942;2024-03-08T13:37:59;27.45;;;12.70;;
34278;SDS011;20538;51.528;9.942;2024-03-08T13:40:28;28.20;;;12.00;;
34278;SDS011;20538;51.528;9.942;2024-03-08T13:42:53;24.17;;;10.07;;
34278;SDS011;20538;51.528;9.942;2024-03-08T13:45:19;24.67;;;11.27;;
34278;SDS011;20538;51.528;9.942;2024-03-08T13:47:48;27.35;;;11.98;;
34278;SDS011;20538;51.528;9.942;2024-03-08T13:50:16;29.92;;;12.00;;
34278;SDS011;20538;51.528;9.942;2024-03-08T13:52:46;28.08;;;11.23;;
34278;SDS011;20538;51.528;9.942;2024-03-08T13:55:16;30.98;;;12.50;;
34278;SDS011;20538;51.528;9.942;2024-03-08T13:57:44;27.13;;;12.55;;
34278;SDS011;20538;51.528;9.942;2024-03-08T14:00:12;32.67;;;13.05;;
34278;SDS011;20538;51.528;9.942;2024-03-08T14:02:38;28.00;;;13.68;;
34278;SDS011;20538;51.528;9.942;2024-03-08T14:05:05;26.02;;;11.75;;
34278;SDS011;20538;51.528;9.942;2024-03-08T14:07:34;27.65;;;12.23;;
34278;SDS011;20538;51.528;9.942;2024-03-08T14:09:59;24.83;;;11.85;;
34278;SDS011;20538;51.528;9.942;2024-03-08T14:12:25;28.05;;;12.15;;
34278;SDS011;20538;51.528;9.942;2024-03-08T14:14:51;29.13;;;12.48;;
34278;SDS011;20538;51.528;9.942;2024-03-08T14:17:18;28.20;;;12.55;;
34278;SDS011;20538;51.528;9.942;2024-03-08T14:19:43;31.77;;;13.13;;
34278;SDS011;20538;51.528;9.942;2024-03-08T14:22:09;28.10;;;11.95;;
34278;SDS011;20538;51.528;9.942;2024-03-08T14:24:39;26.23;;;12.05;;
34278;SDS011;20538;51.528;9.942;2024-03-08T14:27:09;29.92;;;12.38;;
34278;SDS011;20538;51.528;9.942;2024-03-08T14:29:37;22.50;;;10.90;;
34278;SDS011;20538;51.528;9.942;2024-03-08T14:32:03;18.95;;;9.35;;
34278;SDS011;20538;51.528;9.942;2024-03-08T14:34:31;29.73;;;12.40;;
34278;SDS011;20538;51.528;9.942;2024-03-08T14:36:58;30.48;;;13.40;;
34278;SDS011;20538;51.528;9.942;2024-03-08T14:39:25;26.58;;;12.18;;
34278;SDS011;20538;51.528;9.942;2024-03-08T14:41:54;32.50;;;12.73;;
34278;SDS011;20538;51.528;9.942;2024-03-08T14:44:20;26.65;;;10.75;;
34278;SDS011;20538;51.528;9.942;2024-03-08T14:46:51;28.45;;;13.02;;
34278;SDS011;20538;51.528;9.942;2024-03-08T14:49:21;27.10;;;11.82;;
34278;SDS011;20538;51.528;9.942;2024-03-08T14:51:47;29.33;;;13.40;;
34278;SDS011;20538;51.528;9.942;2024-03-08T14:54:13;26.08;;;11.75;;
34278;SDS011;20538;51.528;9.942;2024-03-08T14:56:38;34.47;;;12.45;;
34278;SDS011;20538;51.528;9.942;2024-03-08T14:59:08;32.03;;;13.57;;
34278;SDS011;20538;51.528;9.942;2024-03-08T15:01:34;28.75;;;12.45;;
34278;SDS011;20538;51.528;9.942;2024-03-08T15:04:03;26.33;;;11.52;;